Terminal Aerodrome Forecast
Issued by NWS El Paso, TX

Home | Current Version | Previous Version | Text Only | Print | Product List | Glossary On
Versions: 1 2 3 4 5 6 7 8 9 10 11 12 13 14 15 16
000
FTUS44 KEPZ 011120
TAFELP
TAF
KELP 011120Z 0112/0212 03007KT P6SM SCT100
     FM011600 16010KT P6SM SCT070
     FM020000 14010KT P6SM VCTS SCT070CB BKN120
     FM020400 10007KT P6SM SCT100=

USA.gov is the U.S. government's official web portal to all federal, state and local government web resources and services.